sensor_id;sensor_type;location;lat;lon;timestamp;P1;durP1;ratioP1;P2;durP2;ratioP2
37785;SDS011;23625;48.784;9.336;2023-05-20T00:00:07;8.98;;;5.18;;
37785;SDS011;23625;48.784;9.336;2023-05-20T00:02:34;10.70;;;5.43;;
37785;SDS011;23625;48.784;9.336;2023-05-20T00:05:00;7.50;;;4.60;;
37785;SDS011;23625;48.784;9.336;2023-05-20T00:07:25;11.73;;;4.72;;
37785;SDS011;23625;48.784;9.336;2023-05-20T00:09:51;8.38;;;4.80;;
37785;SDS011;23625;48.784;9.336;2023-05-20T00:12:17;10.82;;;5.40;;
37785;SDS011;23625;48.784;9.336;2023-05-20T00:14:42;15.07;;;5.30;;
37785;SDS011;23625;48.784;9.336;2023-05-20T00:17:08;10.88;;;4.93;;
37785;SDS011;23625;48.784;9.336;2023-05-20T00:19:34;8.05;;;4.50;;
37785;SDS011;23625;48.784;9.336;2023-05-20T00:21:59;13.90;;;5.65;;
37785;SDS011;23625;48.784;9.336;2023-05-20T00:24:25;12.27;;;4.78;;
37785;SDS011;23625;48.784;9.336;2023-05-20T00:26:51;6.95;;;4.50;;
37785;SDS011;23625;48.784;9.336;2023-05-20T00:29:17;9.20;;;4.90;;
37785;SDS011;23625;48.784;9.336;2023-05-20T00:31:46;7.38;;;4.55;;
37785;SDS011;23625;48.784;9.336;2023-05-20T00:34:11;11.82;;;4.90;;
37785;SDS011;23625;48.784;9.336;2023-05-20T00:36:37;7.10;;;4.57;;
37785;SDS011;23625;48.784;9.336;2023-05-20T00:39:03;8.45;;;4.65;;
37785;SDS011;23625;48.784;9.336;2023-05-20T00:41:29;7.65;;;4.32;;
37785;SDS011;23625;48.784;9.336;2023-05-20T00:43:54;11.95;;;5.75;;
37785;SDS011;23625;48.784;9.336;2023-05-20T00:46:23;11.02;;;5.45;;
37785;SDS011;23625;48.784;9.336;2023-05-20T00:48:52;10.70;;;4.75;;
37785;SDS011;23625;48.784;9.336;2023-05-20T00:51:17;8.88;;;4.90;;
37785;SDS011;23625;48.784;9.336;2023-05-20T00:53:44;10.60;;;4.95;;
37785;SDS011;23625;48.784;9.336;2023-05-20T00:56:10;11.05;;;4.88;;
37785;SDS011;23625;48.784;9.336;2023-05-20T00:58:36;12.23;;;5.43;;
37785;SDS011;23625;48.784;9.336;2023-05-20T01:01:02;9.93;;;4.75;;
37785;SDS011;23625;48.784;9.336;2023-05-20T01:03:29;10.00;;;5.03;;
37785;SDS011;23625;48.784;9.336;2023-05-20T01:05:54;10.73;;;5.07;;
37785;SDS011;23625;48.784;9.336;2023-05-20T01:08:20;8.73;;;4.45;;
37785;SDS011;23625;48.784;9.336;2023-05-20T01:10:48;9.60;;;4.57;;
37785;SDS011;23625;48.784;9.336;2023-05-20T01:13:20;8.50;;;4.55;;
37785;SDS011;23625;48.784;9.336;2023-05-20T01:15:48;7.78;;;4.75;;
37785;SDS011;23625;48.784;9.336;2023-05-20T01:18:16;10.65;;;4.60;;
37785;SDS011;23625;48.784;9.336;2023-05-20T01:20:45;11.57;;;5.25;;
37785;SDS011;23625;48.784;9.336;2023-05-20T01:23:15;11.77;;;5.90;;
37785;SDS011;23625;48.784;9.336;2023-05-20T01:25:41;9.63;;;4.82;;
37785;SDS011;23625;48.784;9.336;2023-05-20T01:28:06;10.25;;;5.60;;
37785;SDS011;23625;48.784;9.336;2023-05-20T01:30:34;8.18;;;4.38;;
37785;SDS011;23625;48.784;9.336;2023-05-20T01:33:07;11.57;;;5.13;;
37785;SDS011;23625;48.784;9.336;2023-05-20T01:35:35;11.23;;;5.10;;
37785;SDS011;23625;48.784;9.336;2023-05-20T01:38:02;7.18;;;4.70;;
37785;SDS011;23625;48.784;9.336;2023-05-20T01:40:30;13.68;;;4.60;;
37785;SDS011;23625;48.784;9.336;2023-05-20T01:42:57;11.45;;;5.28;;
37785;SDS011;23625;48.784;9.336;2023-05-20T01:45:24;7.82;;;4.68;;
37785;SDS011;23625;48.784;9.336;2023-05-20T01:47:50;8.85;;;5.15;;
37785;SDS011;23625;48.784;9.336;2023-05-20T01:50:15;14.00;;;6.32;;
37785;SDS011;23625;48.784;9.336;2023-05-20T01:52:41;9.82;;;5.18;;
37785;SDS011;23625;48.784;9.336;2023-05-20T01:55:07;16.85;;;5.25;;
37785;SDS011;23625;48.784;9.336;2023-05-20T01:57:33;12.68;;;5.30;;
37785;SDS011;23625;48.784;9.336;2023-05-20T01:59:58;10.68;;;5.63;;
37785;SDS011;23625;48.784;9.336;2023-05-20T02:02:24;9.73;;;6.05;;
37785;SDS011;23625;48.784;9.336;2023-05-20T02:04:50;8.10;;;5.35;;
37785;SDS011;23625;48.784;9.336;2023-05-20T02:07:16;11.23;;;4.85;;
37785;SDS011;23625;48.784;9.336;2023-05-20T02:09:42;9.52;;;5.05;;
37785;SDS011;23625;48.784;9.336;2023-05-20T02:12:08;10.48;;;5.40;;
37785;SDS011;23625;48.784;9.336;2023-05-20T02:14:40;9.32;;;4.65;;
37785;SDS011;23625;48.784;9.336;2023-05-20T02:17:06;9.85;;;5.15;;
37785;SDS011;23625;48.784;9.336;2023-05-20T02:19:32;8.10;;;4.57;;
37785;SDS011;23625;48.784;9.336;2023-05-20T02:21:57;11.93;;;4.93;;
37785;SDS011;23625;48.784;9.336;2023-05-20T02:24:23;10.07;;;5.30;;
37785;SDS011;23625;48.784;9.336;2023-05-20T02:26:48;8.95;;;5.38;;
37785;SDS011;23625;48.784;9.336;2023-05-20T02:29:15;7.70;;;4.88;;
37785;SDS011;23625;48.784;9.336;2023-05-20T02:31:41;14.02;;;5.00;;
37785;SDS011;23625;48.784;9.336;2023-05-20T02:34:06;16.88;;;5.40;;
37785;SDS011;23625;48.784;9.336;2023-05-20T02:36:32;12.27;;;6.03;;
37785;SDS011;23625;48.784;9.336;2023-05-20T02:38:58;15.02;;;5.05;;
37785;SDS011;23625;48.784;9.336;2023-05-20T02:41:25;10.63;;;5.30;;
37785;SDS011;23625;48.784;9.336;2023-05-20T02:43:50;8.48;;;5.25;;
37785;SDS011;23625;48.784;9.336;2023-05-20T02:46:16;9.10;;;5.72;;
37785;SDS011;23625;48.784;9.336;2023-05-20T02:48:43;8.48;;;5.25;;
37785;SDS011;23625;48.784;9.336;2023-05-20T02:51:09;8.65;;;5.18;;
37785;SDS011;23625;48.784;9.336;2023-05-20T02:53:35;16.67;;;5.63;;
37785;SDS011;23625;48.784;9.336;2023-05-20T02:56:02;12.43;;;6.30;;
37785;SDS011;23625;48.784;9.336;2023-05-20T02:58:28;14.95;;;5.90;;
37785;SDS011;23625;48.784;9.336;2023-05-20T03:00:54;14.70;;;6.38;;
37785;SDS011;23625;48.784;9.336;2023-05-20T03:03:21;15.00;;;5.93;;
37785;SDS011;23625;48.784;9.336;2023-05-20T03:05:47;10.15;;;6.43;;
37785;SDS011;23625;48.784;9.336;2023-05-20T03:08:14;16.17;;;6.28;;
37785;SDS011;23625;48.784;9.336;2023-05-20T03:10:39;12.68;;;6.50;;
37785;SDS011;23625;48.784;9.336;2023-05-20T03:13:05;15.35;;;6.00;;
37785;SDS011;23625;48.784;9.336;2023-05-20T03:15:33;14.30;;;6.15;;
37785;SDS011;23625;48.784;9.336;2023-05-20T03:18:02;14.35;;;6.45;;
37785;SDS011;23625;48.784;9.336;2023-05-20T03:20:28;10.30;;;6.22;;
37785;SDS011;23625;48.784;9.336;2023-05-20T03:22:54;9.45;;;5.70;;
37785;SDS011;23625;48.784;9.336;2023-05-20T03:25:21;8.38;;;5.15;;
37785;SDS011;23625;48.784;9.336;2023-05-20T03:27:46;7.90;;;5.05;;
37785;SDS011;23625;48.784;9.336;2023-05-20T03:30:12;14.18;;;5.45;;
37785;SDS011;23625;48.784;9.336;2023-05-20T03:32:38;10.23;;;5.72;;
37785;SDS011;23625;48.784;9.336;2023-05-20T03:35:04;10.18;;;5.32;;
37785;SDS011;23625;48.784;9.336;2023-05-20T03:37:30;7.78;;;5.00;;
37785;SDS011;23625;48.784;9.336;2023-05-20T03:39:56;10.77;;;5.95;;
37785;SDS011;23625;48.784;9.336;2023-05-20T03:42:21;15.32;;;5.70;;
37785;SDS011;23625;48.784;9.336;2023-05-20T03:44:47;10.10;;;5.38;;
37785;SDS011;23625;48.784;9.336;2023-05-20T03:47:12;9.98;;;6.25;;
37785;SDS011;23625;48.784;9.336;2023-05-20T03:49:38;9.52;;;5.53;;
37785;SDS011;23625;48.784;9.336;2023-05-20T03:52:05;10.73;;;6.30;;
37785;SDS011;23625;48.784;9.336;2023-05-20T03:54:31;9.07;;;5.53;;
37785;SDS011;23625;48.784;9.336;2023-05-20T03:56:56;9.10;;;6.60;;
37785;SDS011;23625;48.784;9.336;2023-05-20T03:59:24;12.23;;;6.35;;
37785;SDS011;23625;48.784;9.336;2023-05-20T04:01:51;9.20;;;6.05;;
37785;SDS011;23625;48.784;9.336;2023-05-20T04:04:17;11.88;;;6.70;;
37785;SDS011;23625;48.784;9.336;2023-05-20T04:06:42;10.48;;;6.35;;
37785;SDS011;23625;48.784;9.336;2023-05-20T04:09:08;19.02;;;6.68;;
37785;SDS011;23625;48.784;9.336;2023-05-20T04:11:33;10.45;;;6.63;;
37785;SDS011;23625;48.784;9.336;2023-05-20T04:13:59;10.95;;;5.97;;
37785;SDS011;23625;48.784;9.336;2023-05-20T04:16:24;11.02;;;5.60;;
37785;SDS011;23625;48.784;9.336;2023-05-20T04:18:50;8.25;;;6.03;;
37785;SDS011;23625;48.784;9.336;2023-05-20T04:21:16;12.43;;;6.32;;
37785;SDS011;23625;48.784;9.336;2023-05-20T04:23:43;8.25;;;5.35;;
37785;SDS011;23625;48.784;9.336;2023-05-20T04:26:08;10.68;;;6.25;;
37785;SDS011;23625;48.784;9.336;2023-05-20T04:28:34;11.00;;;6.32;;
37785;SDS011;23625;48.784;9.336;2023-05-20T04:31:01;9.00;;;6.28;;
37785;SDS011;23625;48.784;9.336;2023-05-20T04:33:30;9.30;;;6.15;;
37785;SDS011;23625;48.784;9.336;2023-05-20T04:35:57;8.25;;;5.57;;
37785;SDS011;23625;48.784;9.336;2023-05-20T04:38:26;9.25;;;5.75;;
37785;SDS011;23625;48.784;9.336;2023-05-20T04:41:00;13.43;;;6.40;;
37785;SDS011;23625;48.784;9.336;2023-05-20T04:43:26;8.68;;;5.95;;
37785;SDS011;23625;48.784;9.336;2023-05-20T04:45:55;8.50;;;5.90;;
37785;SDS011;23625;48.784;9.336;2023-05-20T04:48:21;12.52;;;5.90;;
37785;SDS011;23625;48.784;9.336;2023-05-20T04:50:47;12.27;;;6.63;;
37785;SDS011;23625;48.784;9.336;2023-05-20T04:53:14;11.52;;;6.68;;
37785;SDS011;23625;48.784;9.336;2023-05-20T04:55:40;13.60;;;7.03;;
37785;SDS011;23625;48.784;9.336;2023-05-20T04:58:07;13.40;;;6.30;;
37785;SDS011;23625;48.784;9.336;2023-05-20T05:00:38;14.23;;;6.03;;
37785;SDS011;23625;48.784;9.336;2023-05-20T05:03:10;11.13;;;6.60;;
37785;SDS011;23625;48.784;9.336;2023-05-20T05:05:36;14.50;;;6.32;;
37785;SDS011;23625;48.784;9.336;2023-05-20T05:08:03;9.90;;;6.10;;
37785;SDS011;23625;48.784;9.336;2023-05-20T05:10:30;13.57;;;6.65;;
37785;SDS011;23625;48.784;9.336;2023-05-20T05:12:56;10.35;;;6.43;;
37785;SDS011;23625;48.784;9.336;2023-05-20T05:15:22;10.15;;;5.70;;
37785;SDS011;23625;48.784;9.336;2023-05-20T05:17:48;11.15;;;6.28;;
37785;SDS011;23625;48.784;9.336;2023-05-20T05:20:13;10.68;;;6.50;;
37785;SDS011;23625;48.784;9.336;2023-05-20T05:22:39;12.32;;;6.63;;
37785;SDS011;23625;48.784;9.336;2023-05-20T05:25:06;11.48;;;6.20;;
37785;SDS011;23625;48.784;9.336;2023-05-20T05:27:32;11.00;;;6.93;;
37785;SDS011;23625;48.784;9.336;2023-05-20T05:29:59;9.80;;;6.50;;
37785;SDS011;23625;48.784;9.336;2023-05-20T05:32:25;13.32;;;7.57;;
37785;SDS011;23625;48.784;9.336;2023-05-20T05:34:50;11.20;;;7.32;;
37785;SDS011;23625;48.784;9.336;2023-05-20T05:37:16;16.35;;;8.45;;
37785;SDS011;23625;48.784;9.336;2023-05-20T05:39:41;13.20;;;8.23;;
37785;SDS011;23625;48.784;9.336;2023-05-20T05:42:07;13.05;;;6.95;;
37785;SDS011;23625;48.784;9.336;2023-05-20T05:44:32;16.25;;;7.45;;
37785;SDS011;23625;48.784;9.336;2023-05-20T05:46:58;12.68;;;6.68;;
37785;SDS011;23625;48.784;9.336;2023-05-20T05:49:24;11.30;;;6.72;;
37785;SDS011;23625;48.784;9.336;2023-05-20T05:51:50;12.93;;;7.05;;
37785;SDS011;23625;48.784;9.336;2023-05-20T05:54:16;10.23;;;7.28;;
37785;SDS011;23625;48.784;9.336;2023-05-20T05:56:41;14.10;;;7.20;;
37785;SDS011;23625;48.784;9.336;2023-05-20T05:59:07;13.63;;;6.78;;
37785;SDS011;23625;48.784;9.336;2023-05-20T06:01:32;14.88;;;8.52;;
37785;SDS011;23625;48.784;9.336;2023-05-20T06:03:58;13.45;;;7.50;;
37785;SDS011;23625;48.784;9.336;2023-05-20T06:06:23;15.40;;;7.38;;
37785;SDS011;23625;48.784;9.336;2023-05-20T06:08:49;15.55;;;7.57;;
37785;SDS011;23625;48.784;9.336;2023-05-20T06:11:15;10.05;;;6.53;;
37785;SDS011;23625;48.784;9.336;2023-05-20T06:13:40;11.68;;;7.00;;
37785;SDS011;23625;48.784;9.336;2023-05-20T06:16:06;11.52;;;6.10;;
37785;SDS011;23625;48.784;9.336;2023-05-20T06:18:31;13.68;;;6.82;;
37785;SDS011;23625;48.784;9.336;2023-05-20T06:20:57;11.90;;;7.03;;
37785;SDS011;23625;48.784;9.336;2023-05-20T06:23:23;12.32;;;6.80;;
37785;SDS011;23625;48.784;9.336;2023-05-20T06:25:50;13.52;;;6.60;;
37785;SDS011;23625;48.784;9.336;2023-05-20T06:28:15;19.35;;;9.13;;
37785;SDS011;23625;48.784;9.336;2023-05-20T06:30:41;12.55;;;7.05;;
37785;SDS011;23625;48.784;9.336;2023-05-20T06:33:07;12.13;;;6.90;;
37785;SDS011;23625;48.784;9.336;2023-05-20T06:35:32;15.35;;;6.75;;
37785;SDS011;23625;48.784;9.336;2023-05-20T06:38:01;9.77;;;5.65;;
37785;SDS011;23625;48.784;9.336;2023-05-20T06:40:27;11.73;;;6.22;;
37785;SDS011;23625;48.784;9.336;2023-05-20T06:42:52;10.15;;;5.55;;
37785;SDS011;23625;48.784;9.336;2023-05-20T06:45:18;8.10;;;5.63;;
37785;SDS011;23625;48.784;9.336;2023-05-20T06:47:45;9.30;;;6.13;;
37785;SDS011;23625;48.784;9.336;2023-05-20T06:50:13;8.68;;;5.82;;
37785;SDS011;23625;48.784;9.336;2023-05-20T06:52:38;9.27;;;6.00;;
37785;SDS011;23625;48.784;9.336;2023-05-20T06:55:04;11.02;;;6.50;;
37785;SDS011;23625;48.784;9.336;2023-05-20T06:57:30;12.25;;;6.55;;
37785;SDS011;23625;48.784;9.336;2023-05-20T06:59:56;10.35;;;5.47;;
37785;SDS011;23625;48.784;9.336;2023-05-20T07:02:22;10.05;;;6.10;;
37785;SDS011;23625;48.784;9.336;2023-05-20T07:04:49;9.77;;;5.97;;
37785;SDS011;23625;48.784;9.336;2023-05-20T07:07:14;8.38;;;5.18;;
37785;SDS011;23625;48.784;9.336;2023-05-20T07:09:41;15.60;;;6.72;;
37785;SDS011;23625;48.784;9.336;2023-05-20T07:12:07;10.48;;;6.63;;
37785;SDS011;23625;48.784;9.336;2023-05-20T07:14:33;13.50;;;6.10;;
37785;SDS011;23625;48.784;9.336;2023-05-20T07:16:58;10.75;;;5.95;;
37785;SDS011;23625;48.784;9.336;2023-05-20T07:19:24;15.88;;;6.57;;
37785;SDS011;23625;48.784;9.336;2023-05-20T07:21:50;10.15;;;6.00;;
37785;SDS011;23625;48.784;9.336;2023-05-20T07:24:15;9.27;;;5.65;;
37785;SDS011;23625;48.784;9.336;2023-05-20T07:26:41;8.23;;;5.57;;
37785;SDS011;23625;48.784;9.336;2023-05-20T07:29:07;11.82;;;6.43;;
37785;SDS011;23625;48.784;9.336;2023-05-20T07:31:34;8.93;;;5.43;;
37785;SDS011;23625;48.784;9.336;2023-05-20T07:34:00;11.82;;;5.40;;
37785;SDS011;23625;48.784;9.336;2023-05-20T07:36:26;7.95;;;5.82;;
37785;SDS011;23625;48.784;9.336;2023-05-20T07:38:52;9.57;;;6.20;;
37785;SDS011;23625;48.784;9.336;2023-05-20T07:41:18;9.68;;;5.93;;
37785;SDS011;23625;48.784;9.336;2023-05-20T07:43:45;10.65;;;5.93;;
37785;SDS011;23625;48.784;9.336;2023-05-20T07:46:10;8.45;;;5.65;;
37785;SDS011;23625;48.784;9.336;2023-05-20T07:48:36;9.70;;;6.25;;
37785;SDS011;23625;48.784;9.336;2023-05-20T07:51:02;10.55;;;6.03;;
37785;SDS011;23625;48.784;9.336;2023-05-20T07:53:27;8.70;;;5.43;;
37785;SDS011;23625;48.784;9.336;2023-05-20T07:55:53;9.40;;;5.78;;
37785;SDS011;23625;48.784;9.336;2023-05-20T07:58:19;10.95;;;6.22;;
37785;SDS011;23625;48.784;9.336;2023-05-20T08:00:44;8.57;;;6.22;;
37785;SDS011;23625;48.784;9.336;2023-05-20T08:03:10;7.45;;;5.55;;
37785;SDS011;23625;48.784;9.336;2023-05-20T08:05:36;8.18;;;5.28;;
37785;SDS011;23625;48.784;9.336;2023-05-20T08:08:02;12.05;;;5.93;;
37785;SDS011;23625;48.784;9.336;2023-05-20T08:10:29;9.82;;;6.32;;
37785;SDS011;23625;48.784;9.336;2023-05-20T08:12:55;10.52;;;5.78;;
37785;SDS011;23625;48.784;9.336;2023-05-20T08:15:21;9.65;;;5.47;;
37785;SDS011;23625;48.784;9.336;2023-05-20T08:17:46;8.60;;;5.97;;
37785;SDS011;23625;48.784;9.336;2023-05-20T08:20:12;7.95;;;5.93;;
37785;SDS011;23625;48.784;9.336;2023-05-20T08:22:38;13.57;;;5.60;;
37785;SDS011;23625;48.784;9.336;2023-05-20T08:25:06;9.38;;;6.05;;
37785;SDS011;23625;48.784;9.336;2023-05-20T08:27:33;8.07;;;5.90;;
37785;SDS011;23625;48.784;9.336;2023-05-20T08:29:59;7.63;;;5.07;;
37785;SDS011;23625;48.784;9.336;2023-05-20T08:32:25;9.27;;;5.57;;
37785;SDS011;23625;48.784;9.336;2023-05-20T08:34:51;12.18;;;5.93;;
37785;SDS011;23625;48.784;9.336;2023-05-20T08:37:16;8.35;;;5.90;;
37785;SDS011;23625;48.784;9.336;2023-05-20T08:39:42;9.15;;;5.65;;
37785;SDS011;23625;48.784;9.336;2023-05-20T08:42:10;9.70;;;5.63;;
37785;SDS011;23625;48.784;9.336;2023-05-20T08:44:37;7.05;;;5.32;;
37785;SDS011;23625;48.784;9.336;2023-05-20T08:47:05;8.80;;;5.53;;
37785;SDS011;23625;48.784;9.336;2023-05-20T08:49:32;9.10;;;5.03;;
37785;SDS011;23625;48.784;9.336;2023-05-20T08:51:59;13.95;;;6.03;;
37785;SDS011;23625;48.784;9.336;2023-05-20T08:54:27;8.63;;;5.10;;
37785;SDS011;23625;48.784;9.336;2023-05-20T08:57:04;8.63;;;5.70;;
37785;SDS011;23625;48.784;9.336;2023-05-20T08:59:30;9.10;;;5.32;;
37785;SDS011;23625;48.784;9.336;2023-05-20T09:01:56;7.63;;;5.32;;
37785;SDS011;23625;48.784;9.336;2023-05-20T09:04:22;11.38;;;6.85;;
37785;SDS011;23625;48.784;9.336;2023-05-20T09:06:49;8.65;;;5.53;;
37785;SDS011;23625;48.784;9.336;2023-05-20T09:09:15;13.77;;;5.75;;
37785;SDS011;23625;48.784;9.336;2023-05-20T09:11:41;11.27;;;5.90;;
37785;SDS011;23625;48.784;9.336;2023-05-20T09:14:07;8.13;;;5.35;;
37785;SDS011;23625;48.784;9.336;2023-05-20T09:16:33;10.52;;;5.43;;
37785;SDS011;23625;48.784;9.336;2023-05-20T09:18:59;8.20;;;5.65;;
37785;SDS011;23625;48.784;9.336;2023-05-20T09:21:28;10.02;;;5.20;;
37785;SDS011;23625;48.784;9.336;2023-05-20T09:23:54;6.80;;;5.10;;
37785;SDS011;23625;48.784;9.336;2023-05-20T09:26:25;18.35;;;6.07;;
37785;SDS011;23625;48.784;9.336;2023-05-20T09:28:52;9.75;;;5.68;;
37785;SDS011;23625;48.784;9.336;2023-05-20T09:31:17;9.25;;;4.60;;
37785;SDS011;23625;48.784;9.336;2023-05-20T09:33:43;5.88;;;4.53;;
37785;SDS011;23625;48.784;9.336;2023-05-20T09:36:09;10.50;;;5.28;;
37785;SDS011;23625;48.784;9.336;2023-05-20T09:38:36;8.48;;;4.78;;
37785;SDS011;23625;48.784;9.336;2023-05-20T09:41:05;8.40;;;5.00;;
37785;SDS011;23625;48.784;9.336;2023-05-20T09:43:32;6.75;;;4.45;;
37785;SDS011;23625;48.784;9.336;2023-05-20T09:45:59;9.40;;;4.28;;
37785;SDS011;23625;48.784;9.336;2023-05-20T09:48:25;8.02;;;5.28;;
37785;SDS011;23625;48.784;9.336;2023-05-20T09:50:51;9.57;;;4.57;;
37785;SDS011;23625;48.784;9.336;2023-05-20T09:53:19;8.32;;;4.60;;
37785;SDS011;23625;48.784;9.336;2023-05-20T09:55:46;11.35;;;5.25;;
37785;SDS011;23625;48.784;9.336;2023-05-20T09:58:12;6.18;;;4.60;;
37785;SDS011;23625;48.784;9.336;2023-05-20T10:00:39;10.32;;;4.15;;
37785;SDS011;23625;48.784;9.336;2023-05-20T10:03:05;6.65;;;4.95;;
37785;SDS011;23625;48.784;9.336;2023-05-20T10:05:35;13.20;;;4.38;;
37785;SDS011;23625;48.784;9.336;2023-05-20T10:13:59;7.95;;;4.80;;
37785;SDS011;23625;48.784;9.336;2023-05-20T10:17:01;6.13;;;3.88;;
37785;SDS011;23625;48.784;9.336;2023-05-20T10:19:32;6.35;;;4.05;;
37785;SDS011;23625;48.784;9.336;2023-05-20T10:24:29;6.28;;;4.28;;
37785;SDS011;23625;48.784;9.336;2023-05-20T10:26:59;9.15;;;4.53;;
37785;SDS011;23625;48.784;9.336;2023-05-20T10:29:26;6.65;;;4.50;;
37785;SDS011;23625;48.784;9.336;2023-05-20T10:31:52;10.18;;;4.93;;
37785;SDS011;23625;48.784;9.336;2023-05-20T10:34:19;11.50;;;4.60;;
37785;SDS011;23625;48.784;9.336;2023-05-20T10:39:18;6.30;;;4.53;;
37785;SDS011;23625;48.784;9.336;2023-05-20T10:41:44;6.45;;;4.40;;
37785;SDS011;23625;48.784;9.336;2023-05-20T10:44:09;9.35;;;4.97;;
37785;SDS011;23625;48.784;9.336;2023-05-20T10:46:35;7.05;;;4.00;;
37785;SDS011;23625;48.784;9.336;2023-05-20T10:49:01;5.93;;;4.25;;
37785;SDS011;23625;48.784;9.336;2023-05-20T10:51:27;9.40;;;4.63;;
37785;SDS011;23625;48.784;9.336;2023-05-20T10:53:54;7.85;;;4.13;;
37785;SDS011;23625;48.784;9.336;2023-05-20T10:56:20;6.70;;;3.85;;
37785;SDS011;23625;48.784;9.336;2023-05-20T10:58:48;8.32;;;3.83;;
37785;SDS011;23625;48.784;9.336;2023-05-20T11:01:14;6.57;;;4.15;;
37785;SDS011;23625;48.784;9.336;2023-05-20T11:03:40;7.13;;;3.92;;
37785;SDS011;23625;48.784;9.336;2023-05-20T11:06:14;5.28;;;3.85;;
37785;SDS011;23625;48.784;9.336;2023-05-20T11:08:45;8.27;;;4.03;;
37785;SDS011;23625;48.784;9.336;2023-05-20T11:11:10;7.13;;;4.10;;
37785;SDS011;23625;48.784;9.336;2023-05-20T11:13:37;6.18;;;3.50;;
37785;SDS011;23625;48.784;9.336;2023-05-20T11:16:03;5.97;;;4.00;;
37785;SDS011;23625;48.784;9.336;2023-05-20T11:18:29;6.22;;;4.38;;
37785;SDS011;23625;48.784;9.336;2023-05-20T11:20:56;7.25;;;4.03;;
37785;SDS011;23625;48.784;9.336;2023-05-20T11:23:22;5.05;;;3.60;;
37785;SDS011;23625;48.784;9.336;2023-05-20T11:25:51;5.63;;;3.88;;
37785;SDS011;23625;48.784;9.336;2023-05-20T11:28:18;6.82;;;3.40;;
37785;SDS011;23625;48.784;9.336;2023-05-20T11:30:48;6.68;;;4.32;;
37785;SDS011;23625;48.784;9.336;2023-05-20T11:33:15;4.78;;;3.58;;
37785;SDS011;23625;48.784;9.336;2023-05-20T11:35:44;10.50;;;3.90;;
37785;SDS011;23625;48.784;9.336;2023-05-20T11:38:17;4.45;;;3.72;;
37785;SDS011;23625;48.784;9.336;2023-05-20T11:40:51;5.75;;;3.75;;
37785;SDS011;23625;48.784;9.336;2023-05-20T11:43:18;6.60;;;3.72;;
37785;SDS011;23625;48.784;9.336;2023-05-20T11:45:45;6.50;;;4.15;;
37785;SDS011;23625;48.784;9.336;2023-05-20T11:48:16;6.68;;;3.83;;
37785;SDS011;23625;48.784;9.336;2023-05-20T11:50:44;5.05;;;3.35;;
37785;SDS011;23625;48.784;9.336;2023-05-20T11:53:17;5.10;;;3.65;;
37785;SDS011;23625;48.784;9.336;2023-05-20T11:55:57;7.15;;;4.13;;
37785;SDS011;23625;48.784;9.336;2023-05-20T11:58:30;7.13;;;4.00;;
37785;SDS011;23625;48.784;9.336;2023-05-20T12:00:56;10.18;;;3.97;;
37785;SDS011;23625;48.784;9.336;2023-05-20T12:03:22;6.45;;;3.70;;
37785;SDS011;23625;48.784;9.336;2023-05-20T12:05:48;4.43;;;3.50;;
37785;SDS011;23625;48.784;9.336;2023-05-20T12:08:14;5.50;;;3.95;;
37785;SDS011;23625;48.784;9.336;2023-05-20T12:10:40;6.43;;;3.65;;
37785;SDS011;23625;48.784;9.336;2023-05-20T12:13:06;8.60;;;3.83;;
37785;SDS011;23625;48.784;9.336;2023-05-20T12:15:36;6.85;;;4.10;;
37785;SDS011;23625;48.784;9.336;2023-05-20T12:18:02;4.43;;;3.20;;
37785;SDS011;23625;48.784;9.336;2023-05-20T12:20:28;6.18;;;3.67;;
37785;SDS011;23625;48.784;9.336;2023-05-20T12:22:55;5.55;;;3.35;;
37785;SDS011;23625;48.784;9.336;2023-05-20T12:25:21;7.93;;;4.28;;
37785;SDS011;23625;48.784;9.336;2023-05-20T12:27:48;6.88;;;3.60;;
37785;SDS011;23625;48.784;9.336;2023-05-20T12:30:18;6.28;;;3.80;;
37785;SDS011;23625;48.784;9.336;2023-05-20T12:32:45;6.47;;;3.88;;
37785;SDS011;23625;48.784;9.336;2023-05-20T12:35:12;8.23;;;3.50;;
37785;SDS011;23625;48.784;9.336;2023-05-20T12:37:38;6.90;;;3.85;;
37785;SDS011;23625;48.784;9.336;2023-05-20T12:40:04;7.55;;;3.65;;
37785;SDS011;23625;48.784;9.336;2023-05-20T12:42:33;5.45;;;3.70;;
37785;SDS011;23625;48.784;9.336;2023-05-20T12:45:02;5.97;;;3.60;;
37785;SDS011;23625;48.784;9.336;2023-05-20T12:47:29;4.40;;;3.53;;
37785;SDS011;23625;48.784;9.336;2023-05-20T12:49:56;4.25;;;3.53;;
37785;SDS011;23625;48.784;9.336;2023-05-20T12:52:21;6.70;;;3.97;;
37785;SDS011;23625;48.784;9.336;2023-05-20T12:54:47;9.02;;;3.10;;
37785;SDS011;23625;48.784;9.336;2023-05-20T12:57:12;6.25;;;3.67;;
37785;SDS011;23625;48.784;9.336;2023-05-20T12:59:38;4.15;;;3.20;;
37785;SDS011;23625;48.784;9.336;2023-05-20T13:02:04;4.10;;;3.22;;
37785;SDS011;23625;48.784;9.336;2023-05-20T13:04:29;4.95;;;2.88;;
37785;SDS011;23625;48.784;9.336;2023-05-20T13:06:56;4.97;;;3.25;;
37785;SDS011;23625;48.784;9.336;2023-05-20T13:09:21;8.43;;;3.78;;
37785;SDS011;23625;48.784;9.336;2023-05-20T13:11:47;6.63;;;3.53;;
37785;SDS011;23625;48.784;9.336;2023-05-20T13:14:13;7.50;;;3.55;;
37785;SDS011;23625;48.784;9.336;2023-05-20T13:16:38;8.35;;;4.13;;
37785;SDS011;23625;48.784;9.336;2023-05-20T13:19:04;7.78;;;3.80;;
37785;SDS011;23625;48.784;9.336;2023-05-20T13:21:30;6.65;;;3.83;;
37785;SDS011;23625;48.784;9.336;2023-05-20T13:23:55;5.22;;;2.90;;
37785;SDS011;23625;48.784;9.336;2023-05-20T13:26:21;5.32;;;3.30;;
37785;SDS011;23625;48.784;9.336;2023-05-20T13:28:47;4.13;;;3.05;;
37785;SDS011;23625;48.784;9.336;2023-05-20T13:31:13;7.85;;;3.22;;
37785;SDS011;23625;48.784;9.336;2023-05-20T13:33:38;4.40;;;3.53;;
37785;SDS011;23625;48.784;9.336;2023-05-20T13:36:04;6.00;;;3.80;;
37785;SDS011;23625;48.784;9.336;2023-05-20T13:38:30;7.97;;;3.35;;
37785;SDS011;23625;48.784;9.336;2023-05-20T13:40:55;9.73;;;3.75;;
37785;SDS011;23625;48.784;9.336;2023-05-20T13:43:23;7.07;;;3.85;;
37785;SDS011;23625;48.784;9.336;2023-05-20T13:45:50;5.32;;;3.03;;
37785;SDS011;23625;48.784;9.336;2023-05-20T13:48:16;5.88;;;3.67;;
37785;SDS011;23625;48.784;9.336;2023-05-20T13:50:42;7.50;;;3.50;;
37785;SDS011;23625;48.784;9.336;2023-05-20T13:53:07;5.20;;;3.92;;
37785;SDS011;23625;48.784;9.336;2023-05-20T13:55:37;6.32;;;3.45;;
37785;SDS011;23625;48.784;9.336;2023-05-20T13:58:03;7.10;;;3.47;;
37785;SDS011;23625;48.784;9.336;2023-05-20T14:00:29;5.40;;;3.55;;
37785;SDS011;23625;48.784;9.336;2023-05-20T14:02:55;10.10;;;3.70;;
37785;SDS011;23625;48.784;9.336;2023-05-20T14:05:21;14.60;;;4.57;;
37785;SDS011;23625;48.784;9.336;2023-05-20T14:07:47;6.85;;;3.20;;
37785;SDS011;23625;48.784;9.336;2023-05-20T14:10:13;4.13;;;3.47;;
37785;SDS011;23625;48.784;9.336;2023-05-20T14:12:38;7.50;;;3.30;;
37785;SDS011;23625;48.784;9.336;2023-05-20T14:15:04;10.75;;;4.15;;
37785;SDS011;23625;48.784;9.336;2023-05-20T14:17:33;5.20;;;3.33;;
37785;SDS011;23625;48.784;9.336;2023-05-20T14:19:59;4.13;;;3.00;;
37785;SDS011;23625;48.784;9.336;2023-05-20T14:22:24;9.13;;;3.63;;
37785;SDS011;23625;48.784;9.336;2023-05-20T14:24:50;8.18;;;3.60;;
37785;SDS011;23625;48.784;9.336;2023-05-20T14:27:15;7.65;;;3.30;;
37785;SDS011;23625;48.784;9.336;2023-05-20T14:29:41;3.90;;;3.50;;
37785;SDS011;23625;48.784;9.336;2023-05-20T14:32:07;6.45;;;3.40;;
37785;SDS011;23625;48.784;9.336;2023-05-20T14:34:33;3.97;;;3.15;;
37785;SDS011;23625;48.784;9.336;2023-05-20T14:36:58;8.15;;;3.63;;
37785;SDS011;23625;48.784;9.336;2023-05-20T14:39:29;5.00;;;3.03;;
37785;SDS011;23625;48.784;9.336;2023-05-20T14:41:54;6.55;;;3.55;;
37785;SDS011;23625;48.784;9.336;2023-05-20T14:44:20;6.65;;;3.40;;
37785;SDS011;23625;48.784;9.336;2023-05-20T14:46:46;7.63;;;3.22;;
37785;SDS011;23625;48.784;9.336;2023-05-20T14:49:11;8.60;;;3.58;;